Latest Weather Observations for Latrobe Valley

IDV60801

Issued at 10:35 am EST Thursday 28 August 2014 (issued every 30 minutes, with the page automatically refreshed every 10 minutes)

About weather observations | Map of weather stations | Latest weather observations for VIC | Other Formats
Station Details ID: 085280 Name: LATROBE VALLEY AIRPORT Lat: -38.21 Lon: 146.47 Height: 55.7 m
Data from the previous 72 hours. | See also: Recent months at Latrobe Valley
Date/Time
EST
Temp
°C
App
Temp
°C
Dew
Point
Rel
Hum
%
Delta-T
°C
Wind Press
QNH
hPa
Press
MSL
hPa
Rain
since 9 am
mm
Dir
 
Spd
km/h
Gust
km/h
Spd
kts
Gust
kts
28/10:30am 10.1 9.0 10.1 100 0.0 NNE 6 9 3 5 1029.6 1029.7 0.0
28/10:25am 10.3 9.1 10.3 100 0.0 E 7 9 4 5 1029.6 1029.7 0.0
28/10:00am 9.2 7.9 9.2 100 0.0 E 6 9 3 5 1029.8 1029.9 0.0
28/09:30am 8.1 6.5 8.1 100 0.0 E 6 7 3 4 1030.0 1030.1 0.0
28/09:00am 7.3 6.7 7.3 100 0.0 CALM 0 0 0 0 1030.1 1030.2 0.2
28/08:30am 6.0 5.1 6.0 100 0.0 CALM 0 0 0 0 1030.1 1030.2 0.2
28/08:00am 4.6 3.4 4.6 100 0.0 CALM 0 0 0 0 1030.0 1030.1 0.2
28/07:30am 3.2 1.7 3.2 100 0.0 CALM 0 0 0 0 1029.9 1030.0 0.2
28/07:00am 2.7 1.1 2.7 100 0.0 CALM 0 0 0 0 1029.7 1029.8 0.2
28/06:30am 2.7 1.1 2.7 100 0.0 CALM 0 0 0 0 1029.5 1029.6 0.2
28/06:00am 2.9 1.4 2.9 100 0.0 SSW 0 6 0 3 1029.3 1029.4 0.2
28/05:30am 2.7 1.1 2.7 100 0.0 CALM 0 0 0 0 1029.0 1029.1 0.2
28/05:00am 3.0 1.5 3.0 100 0.0 CALM 0 0 0 0 1028.8 1028.9 0.2
28/04:30am 2.7 1.1 2.7 100 0.0 CALM 0 0 0 0 1028.9 1029.0 0.2
28/04:00am 2.6 1.0 2.6 100 0.0 CALM 0 0 0 0 1028.8 1028.9 0.2
28/03:30am 2.6 1.0 2.6 100 0.0 CALM 0 0 0 0 1028.8 1028.9 0.2
28/03:00am 3.1 1.6 3.1 100 0.0 CALM 0 0 0 0 1028.7 1028.8 0.2
28/02:30am 3.8 2.4 3.8 100 0.0 CALM 0 0 0 0 1028.9 1029.0 0.2
28/02:09am 4.0 2.7 4.0 100 0.0 CALM 0 0 0 0 1028.9 1029.0 0.2
28/02:00am 3.9 2.6 3.9 100 0.0 CALM 0 0 0 0 1028.9 1029.0 0.2
28/01:30am 3.4 2.0 3.4 100 0.0 CALM 0 0 0 0 1029.0 1029.1 0.2
28/01:24am 4.1 2.8 4.1 100 0.0 CALM 0 0 0 0 1029.0 1029.1 0.2
28/01:20am 4.6 3.4 4.6 100 0.0 CALM 0 0 0 0 1029.1 1029.2 0.2
28/01:00am 4.4 3.2 4.4 100 0.0 CALM 0 0 0 0 1029.0 1029.1 0.2
28/12:51am 4.3 3.0 4.3 100 0.0 CALM 0 0 0 0 1029.1 1029.2 0.2
28/12:46am 4.4 3.2 4.4 100 0.0 CALM 0 0 0 0 1029.1 1029.2 0.2
28/12:30am 4.9 3.8 4.9 100 0.0 CALM 0 0 0 0 1029.2 1029.3 0.2
28/12:25am 4.5 3.3 4.4 99 0.0 CALM 0 0 0 0 1029.2 1029.3 0.2
28/12:00am 6.0 5.1 6.0 100 0.0 NW 0 0 0 0 1029.2 1029.3 0.2
 
Date/Time
EST
Temp
°C
App
Temp
°C
Dew
Point
Rel
Hum
%
Delta-T
°C
Wind Press
QNH
hPa
Press
MSL
hPa
Rain
since 9 am
mm
Dir
 
Spd
km/h
Gust
km/h
Spd
kts
Gust
kts
27/11:30pm 6.3 4.7 6.3 100 0.0 NW 4 7 2 4 1029.2 1029.3 0.2
27/11:00pm 5.4 2.6 5.3 99 0.0 WSW 9 11 5 6 1029.2 1029.3 0.2
27/10:30pm 7.1 6.4 7.0 99 0.0 CALM 0 4 0 2 1029.0 1029.1 0.2
27/10:00pm 8.0 6.8 7.9 99 0.0 ENE 4 9 2 5 1029.1 1029.2 0.2
27/09:30pm 8.3 6.2 8.2 99 0.0 NE 9 11 5 6 1029.1 1029.2 0.2
27/09:00pm 8.3 7.4 7.7 96 0.3 NE 2 6 1 3 1029.1 1029.2 0.2
27/08:30pm 9.4 7.9 8.3 93 0.5 ENE 6 7 3 4 1029.0 1029.1 0.2
27/08:00pm 10.1 8.7 8.7 91 0.7 ENE 6 7 3 4 1028.9 1029.0 0.2
27/07:30pm 10.6 8.7 8.9 89 0.8 ENE 9 11 5 6 1028.6 1028.7 0.2
27/07:00pm 10.2 8.1 8.1 87 1.0 NE 9 11 5 6 1028.3 1028.4 0.2
27/06:30pm 11.5 9.3 7.8 78 1.8 NE 9 11 5 6 1028.1 1028.2 0.2
27/06:00pm 13.1 11.0 8.2 72 2.4 ENE 9 13 5 7 1027.9 1028.0 0.2
27/05:30pm 13.8 11.3 8.0 68 2.9 NE 11 15 6 8 1027.5 1027.6 0.2
27/05:00pm 16.2 14.8 9.4 64 3.5 ENE 7 13 4 7 1027.5 1027.6 0.2
27/04:30pm 16.6 14.9 9.8 64 3.6 ENE 9 15 5 8 1027.3 1027.4 0.2
27/04:00pm 16.8 14.0 8.5 58 4.2 NE 13 17 7 9 1027.2 1027.3 0.2
27/03:30pm 16.8 13.6 8.5 58 4.3 NE 15 20 8 11 1027.2 1027.3 0.2
27/03:00pm 17.0 14.5 9.7 62 3.8 ENE 13 20 7 11 1027.1 1027.2 0.2
27/02:30pm 16.7 12.8 8.7 59 4.1 NE 19 22 10 12 1027.1 1027.2 0.2
27/02:00pm 16.8 13.4 9.2 61 3.9 NE 17 24 9 13 1027.3 1027.4 0.0
27/01:30pm 16.4 12.9 8.6 60 4.0 E 17 24 9 13 1027.4 1027.5 0.0
27/01:00pm 16.1 13.1 9.1 63 3.6 ENE 15 20 8 11 1027.6 1027.7 0.0
27/12:30pm 15.7 13.1 9.4 66 3.3 E 13 20 7 11 1028.0 1028.1 0.0
27/12:00pm 15.8 14.1 12.4 80 1.9 NE 13 17 7 9 1028.3 1028.4 0.0
27/11:30am 13.7 12.3 12.1 90 0.9 NE 11 19 6 10 1028.8 1028.9 0.0
27/11:00am 12.8 11.2 12.8 100 0.0 NE 13 17 7 9 1029.0 1029.1 0.0
27/10:30am 12.2 11.2 12.2 100 0.0 ENE 9 13 5 7 1029.1 1029.2 0.0
27/10:27am 11.7 10.5 11.7 100 0.0 ENE 9 13 5 7 1029.1 1029.2 0.0
27/10:00am 9.9 8.2 9.9 100 0.0 ENE 9 13 5 7 1029.2 1029.3 0.0
27/09:33am 9.3 7.8 9.3 100 0.0 NE 7 9 4 5 1029.1 1029.2 0.0
27/09:30am 9.5 8.1 9.5 100 0.0 NE 7 9 4 5 1029.1 1029.2 0.0
27/09:00am 8.7 7.1 8.7 100 0.0 ENE 7 13 4 7 1029.0 1029.1 0.2
27/08:30am 7.6 5.9 7.6 100 0.0 E 6 7 3 4 1028.9 1029.0 0.2
27/08:00am 6.8 5.7 6.8 100 0.0 ESE 2 7 1 4 1028.7 1028.8 0.2
27/07:30am 7.0 5.5 7.0 100 0.0 E 4 7 2 4 1028.5 1028.6 0.2
27/07:00am 7.2 5.8 7.2 100 0.0 NE 4 7 2 4 1028.3 1028.4 0.2
27/06:30am 7.4 5.7 7.4 100 0.0 N 6 7 3 4 1027.9 1028.0 0.2
27/06:00am 7.7 5.5 7.7 100 0.0 NE 9 13 5 7 1027.5 1027.6 0.2
27/05:30am 7.7 5.5 7.7 100 0.0 NNE 9 13 5 7 1027.4 1027.5 0.2
27/05:00am 7.8 5.6 7.8 100 0.0 NNE 9 11 5 6 1027.3 1027.4 0.2
27/04:30am 7.1 5.1 7.1 100 0.0 NE 7 9 4 5 1027.0 1027.1 0.2
27/04:16am 8.3 7.5 8.3 100 0.0 ENE 2 6 1 3 1027.0 1027.1 0.2
27/04:00am 9.0 7.1 9.0 100 0.0 ENE 9 15 5 8 1026.8 1026.9 0.2
27/03:31am 9.1 7.2 9.1 100 0.0 ENE 9 13 5 7 1026.9 1027.0 0.2
27/03:30am 9.2 7.3 9.2 100 0.0 ENE 9 13 5 7 1026.9 1027.0 0.2
27/03:00am 9.2 6.6 9.2 100 0.0 ENE 13 17 7 9 1026.9 1027.0 0.2
27/02:30am 9.4 8.0 9.4 100 0.0 ENE 7 15 4 8 1027.1 1027.2 0.2
27/02:00am 9.1 6.4 9.1 100 0.0 E 13 19 7 10 1027.0 1027.1 0.2
27/01:30am 8.9 6.6 8.9 100 0.0 E 11 17 6 9 1027.1 1027.2 0.2
27/01:00am 8.5 6.5 8.5 100 0.0 ENE 9 13 5 7 1027.3 1027.4 0.2
27/12:36am 8.4 5.6 8.4 100 0.0 NE 13 15 7 8 1027.3 1027.4 0.2
27/12:30am 7.8 4.8 7.8 100 0.0 NE 13 15 7 8 1027.4 1027.5 0.2
27/12:18am 7.5 5.2 7.4 99 0.0 NE 9 13 5 7 1027.5 1027.6 0.2
27/12:00am 10.0 8.3 10.0 100 0.0 ENE 9 15 5 8 1027.6 1027.7 0.2
 
Date/Time
EST
Temp
°C
App
Temp
°C
Dew
Point
Rel
Hum
%
Delta-T
°C
Wind Press
QNH
hPa
Press
MSL
hPa
Rain
since 9 am
mm
Dir
 
Spd
km/h
Gust
km/h
Spd
kts
Gust
kts
26/11:30pm 9.8 7.7 9.8 100 0.0 E 11 17 6 9 1027.8 1027.9 0.2
26/11:00pm 10.0 8.0 10.0 100 0.0 E 11 17 6 9 1028.0 1028.1 0.2
26/10:30pm 10.0 8.3 10.0 100 0.0 ESE 9 11 5 6 1028.1 1028.2 0.2
26/10:00pm 10.2 8.6 10.2 100 0.0 E 9 13 5 7 1028.2 1028.3 0.2
26/09:30pm 10.1 8.5 10.1 100 0.0 E 9 11 5 6 1028.3 1028.4 0.2
26/09:00pm 10.3 9.1 10.3 100 0.0 E 7 11 4 6 1028.4 1028.5 0.2
26/08:30pm 10.7 9.6 10.5 99 0.1 ENE 7 11 4 6 1028.4 1028.5 0.2
26/08:00pm 11.2 9.8 11.0 99 0.1 E 9 11 5 6 1028.5 1028.6 0.2
26/07:30pm 11.6 9.8 11.0 96 0.3 NE 11 17 6 9 1028.4 1028.5 0.2
26/07:00pm 12.5 10.7 10.9 90 0.8 ENE 11 17 6 9 1028.2 1028.3 0.2
26/06:30pm 13.3 11.4 10.5 83 1.5 ENE 11 17 6 9 1028.0 1028.1 0.2
26/06:00pm 13.9 12.3 10.1 78 2.0 E 9 11 5 6 1027.6 1027.7 0.2
26/05:30pm 14.8 13.2 10.2 74 2.4 E 9 17 5 9 1027.3 1027.4 0.2
26/05:00pm 15.4 11.8 9.7 69 2.9 ENE 19 28 10 15 1026.9 1027.0 0.2
26/04:30pm 16.5 12.7 9.2 62 3.8 ENE 19 26 10 14 1026.5 1026.6 0.2
26/04:00pm 16.9 13.7 8.3 57 4.4 E 15 24 8 13 1026.5 1026.6 0.2
26/03:30pm 16.8 13.4 9.0 60 4.0 E 17 26 9 14 1026.4 1026.5 0.2
26/03:00pm 17.1 14.5 10.7 66 3.4 E 15 22 8 12 1026.6 1026.7 0.2
26/02:30pm 16.8 13.6 11.1 69 3.1 E 19 28 10 15 1026.8 1026.9 0.0
26/02:00pm 17.2 14.8 12.5 74 2.6 ENE 17 24 9 13 1026.9 1027.0 0.0
26/01:30pm 16.4 13.5 12.2 76 2.3 ENE 19 24 10 13 1027.1 1027.2 0.0
26/01:00pm 16.0 13.0 12.4 79 2.0 ENE 20 30 11 16 1027.4 1027.5 0.0
26/12:33pm 15.7 13.7 12.8 83 1.6 ENE 15 24 8 13 1027.8 1027.9 0.0
26/12:30pm 15.1 12.0 11.7 80 1.8 ENE 19 28 10 15 1027.8 1027.9 0.0
26/12:00pm 15.6 12.8 12.7 83 1.6 ENE 19 28 10 15 1028.2 1028.3 0.0
26/11:30am 15.1 11.8 12.8 86 1.3 NE 22 32 12 17 1028.5 1028.6 0.0
26/11:00am 14.2 12.6 12.9 92 0.7 E 13 24 7 13 1028.9 1029.0 0.0
26/10:30am 13.1 11.2 13.1 100 0.0 ENE 15 20 8 11 1029.1 1029.2 0.0
26/10:00am 12.8 11.2 12.8 100 0.0 ENE 13 20 7 11 1029.2 1029.3 0.0
26/09:30am 11.7 10.1 11.7 100 0.0 E 11 15 6 8 1029.4 1029.5 0.0
26/09:25am 11.9 10.4 11.9 100 0.0 ENE 11 15 6 8 1029.4 1029.5 0.0
26/09:17am 11.4 10.1 11.4 100 0.0 ENE 9 13 5 7 1029.4 1029.5 0.0
26/09:00am 10.5 9.4 10.5 100 0.0 E 7 11 4 6 1029.5 1029.6 0.4
26/08:30am 10.0 8.7 10.0 100 0.0 E 7 11 4 6 1029.5 1029.6 0.4
26/08:00am 10.0 8.7 10.0 100 0.0 ENE 7 13 4 7 1029.3 1029.4 0.4
26/07:30am 9.9 8.2 9.9 100 0.0 ENE 9 15 5 8 1029.1 1029.2 0.4
26/07:00am 10.0 8.0 10.0 100 0.0 ENE 11 17 6 9 1029.1 1029.2 0.4
26/06:30am 10.3 8.7 10.3 100 0.0 ENE 9 13 5 7 1028.9 1029.0 0.4
26/06:00am 10.4 9.4 10.4 100 0.0 E 6 9 3 5 1028.6 1028.7 0.4
26/05:30am 10.2 9.2 10.2 100 0.0 E 6 9 3 5 1028.2 1028.3 0.4
26/05:00am 10.1 9.0 10.1 100 0.0 ESE 6 9 3 5 1028.2 1028.3 0.4
26/04:30am 9.8 9.8 9.8 100 0.0 CALM 0 0 0 0 1028.1 1028.2 0.4
26/04:18am 9.7 9.7 9.7 100 0.0 CALM 0 0 0 0 1028.2 1028.3 0.4
26/04:07am 9.6 9.5 9.6 100 0.0 CALM 0 0 0 0 1028.2 1028.3 0.4
26/04:00am 9.5 9.4 9.5 100 0.0 CALM 0 2 0 1 1028.1 1028.2 0.4
26/03:30am 9.4 9.3 9.4 100 0.0 CALM 0 0 0 0 1028.1 1028.2 0.4
26/03:21am 9.4 9.3 9.4 100 0.0 CALM 0 0 0 0 1028.1 1028.2 0.4
26/03:00am 9.5 9.4 9.5 100 0.0 CALM 0 0 0 0 1028.3 1028.4 0.4
26/02:30am 9.3 9.2 9.3 100 0.0 CALM 0 0 0 0 1028.4 1028.5 0.4
26/02:00am 9.1 7.8 9.1 100 0.0 SSE 6 9 3 5 1028.5 1028.6 0.4
26/01:30am 8.9 8.7 8.9 100 0.0 CALM 0 0 0 0 1028.8 1028.9 0.4
26/01:00am 8.6 8.3 8.6 100 0.0 CALM 0 0 0 0 1029.0 1029.1 0.4
26/12:30am 8.8 8.2 8.8 100 0.0 NNW 2 6 1 3 1028.9 1029.0 0.4
26/12:08am 8.8 8.5 8.8 100 0.0 CALM 0 0 0 0 1029.0 1029.1 0.4
26/12:00am 8.5 8.2 8.5 100 0.0 CALM 0 4 0 2 1029.0 1029.1 0.4
 
Date/Time
EST
Temp
°C
App
Temp
°C
Dew
Point
Rel
Hum
%
Delta-T
°C
Wind Press
QNH
hPa
Press
MSL
hPa
Rain
since 9 am
mm
Dir
 
Spd
km/h
Gust
km/h
Spd
kts
Gust
kts
25/11:49pm 8.5 7.0 8.5 100 0.0 W 6 6 3 3 1028.9 1029.0 0.4
25/11:30pm 8.5 7.0 8.5 100 0.0 WSW 6 7 3 4 1028.8 1028.9 0.0
25/11:00pm 8.0 6.4 8.0 100 0.0 WSW 6 7 3 4 1028.8 1028.9 0.0
25/10:56pm 7.9 6.3 7.9 100 0.0 SW 6 7 3 4 1028.9 1029.0 0.0
25/10:30pm 7.4 6.8 7.4 100 0.0 CALM 0 4 0 2 1028.8 1028.9 0.0
25/10:00pm 7.5 5.2 7.5 100 0.0 S 9 11 5 6 1028.9 1029.0 0.0
25/09:47pm 7.2 5.2 7.2 100 0.0 S 7 11 4 6 1029.0 1029.1 0.0
25/09:30pm 7.0 6.3 7.0 100 0.0 CALM 0 0 0 0 1029.0 1029.1 0.0
25/09:23pm 6.7 5.9 6.6 99 0.0 CALM 0 0 0 0 1028.9 1029.0 0.0
25/09:00pm 7.0 5.1 6.9 99 0.0 NE 6 6 3 3 1029.0 1029.1 0.0
25/08:30pm 8.2 6.6 8.1 99 0.0 S 6 7 3 4 1029.0 1029.1 0.0
25/08:00pm 8.3 7.9 8.2 99 0.0 CALM 0 0 0 0 1028.9 1029.0 0.0
25/07:30pm 7.6 6.2 7.3 98 0.1 N 4 9 2 5 1028.5 1028.6 0.0
25/07:00pm 9.3 8.0 7.7 90 0.8 NE 4 7 2 4 1028.3 1028.4 0.0
25/06:30pm 11.0 9.6 8.9 87 1.0 ESE 6 7 3 4 1028.1 1028.2 0.0
25/06:00pm 11.3 9.6 8.2 81 1.5 ENE 7 11 4 6 1027.6 1027.7 0.0
25/05:30pm 12.8 10.8 8.7 76 2.1 ESE 9 13 5 7 1027.3 1027.4 0.0
25/05:00pm 14.0 11.6 8.6 70 2.7 E 11 15 6 8 1027.0 1027.1 0.0
25/04:30pm 13.6 12.2 8.9 73 2.4 ESE 6 9 3 5 1026.8 1026.9 0.0
25/04:00pm 14.7 12.4 9.1 69 2.8 E 11 19 6 10 1026.8 1026.9 0.0
25/03:30pm 14.2 12.3 9.0 71 2.6 E 9 15 5 8 1026.7 1026.8 0.0
25/03:00pm 14.4 12.5 9.0 70 2.7 ENE 9 20 5 11 1026.6 1026.7 0.0
25/02:30pm 14.7 12.4 8.9 68 3.0 ENE 11 17 6 9 1026.6 1026.7 0.0
25/02:00pm 14.1 11.8 8.9 71 2.6 NE 11 17 6 9 1026.7 1026.8 0.0
25/01:30pm 14.5 13.3 10.3 76 2.2 E 7 9 4 5 1026.8 1026.9 0.0
25/01:00pm 13.6 11.7 8.9 73 2.4 ESE 9 13 5 7 1026.9 1027.0 0.0
25/12:30pm 14.4 13.0 11.0 80 1.8 E 9 15 5 8 1027.2 1027.3 0.0
25/12:00pm 13.1 11.9 10.3 83 1.4 E 7 15 4 8 1027.4 1027.5 0.0
25/11:30am 12.4 10.8 10.1 86 1.2 ESE 9 13 5 7 1027.8 1027.9 0.0
25/11:00am 11.7 9.7 10.3 91 0.7 ESE 11 19 6 10 1027.9 1028.0 0.0

Other Formats:

Comma delimited format used in spreadsheet applications
http://www.bom.gov.au/fwo/IDV60801/IDV60801.94891.axf

JavaScript Object Notation format (JSON) in row-major order
http://www.bom.gov.au/fwo/IDV60801/IDV60801.94891.json